Time;durP1;ratioP1;P1;durP2;ratioP2;P2;SDS_P1;SDS_P2;PMS_P1;PMS_P2;Temp;Humidity;BMP_temperature;BMP_pressure;BME280_temperature;BME280_humidity;BME280_pressure;Samples;Min_cycle;Max_cycle;Signal;HPM_P1;HPM_P2
2023/12/29 00:02:22;;;;;;;;;2.75;2.75;;;;;;;;5066885;28;9353;-78
2023/12/29 00:04:50;;;;;;;;;1.33;1.33;;;;;;;;5073643;28;9677;-81
2023/12/29 00:07:20;;;;;;;;;2.25;2.25;;;;;;;;5083303;28;9382;-81
2023/12/29 00:09:48;;;;;;;;;3.25;2.00;;;;;;;;5072588;28;9633;-80
2023/12/29 00:12:15;;;;;;;;;3.00;1.50;;;;;;;;5060946;28;9406;-82
2023/12/29 00:14:43;;;;;;;;;4.00;2.00;;;;;;;;5063417;28;9592;-81
2023/12/29 00:17:12;;;;;;;;;2.25;2.25;;;;;;;;5060208;28;10236;-80
2023/12/29 00:19:39;;;;;;;;;1.33;1.33;;;;;;;;5053204;28;9478;-81
2023/12/29 00:22:06;;;;;;;;;4.00;1.00;;;;;;;;5065838;28;9271;-82
2023/12/29 00:24:33;;;;;;;;;2.00;2.00;;;;;;;;5069959;28;9281;-81
2023/12/29 00:27:01;;;;;;;;;1.00;1.00;;;;;;;;5067410;28;9424;-82
2023/12/29 00:29:32;;;;;;;;;3.00;1.00;;;;;;;;5069335;28;9516;-83
2023/12/29 00:32:02;;;;;;;;;1.67;1.67;;;;;;;;5068656;28;9260;-81
2023/12/29 00:34:32;;;;;;;;;2.33;1.67;;;;;;;;5070254;28;9339;-80
2023/12/29 00:37:02;;;;;;;;;1.00;0.00;;;;;;;;5071329;28;9416;-81
2023/12/29 00:39:30;;;;;;;;;3.50;2.00;;;;;;;;5072151;28;9180;-79
2023/12/29 00:41:58;;;;;;;;;1.50;1.25;;;;;;;;5070544;28;9443;-81
2023/12/29 00:44:25;;;;;;;;;2.33;1.33;;;;;;;;5069189;28;9488;-81
2023/12/29 00:46:52;;;;;;;;;1.00;1.00;;;;;;;;5068943;28;9392;-80
2023/12/29 00:49:20;;;;;;;;;1.00;1.00;;;;;;;;5068454;28;10183;-81
2023/12/29 00:51:49;;;;;;;;;2.00;2.00;;;;;;;;5069253;28;9416;-80
2023/12/29 00:54:16;;;;;;;;;3.00;1.67;;;;;;;;5068701;28;9301;-80
2023/12/29 00:56:44;;;;;;;;;2.00;2.00;;;;;;;;5069336;28;9399;-80
2023/12/29 00:59:11;;;;;;;;;1.00;1.00;;;;;;;;5069064;28;9447;-80
2023/12/29 01:01:41;;;;;;;;;1.00;1.00;;;;;;;;5068510;28;9480;-81
2023/12/29 01:04:09;;;;;;;;;1.00;1.00;;;;;;;;5066593;28;9336;-80
2023/12/29 01:06:36;;;;;;;;;1.00;1.00;;;;;;;;5067491;28;9364;-82
2023/12/29 01:09:04;;;;;;;;;4.00;2.00;;;;;;;;5066129;28;9315;-82
2023/12/29 01:11:32;;;;;;;;;1.00;0.67;;;;;;;;5069074;28;9503;-80
2023/12/29 01:14:01;;;;;;;;;3.75;2.00;;;;;;;;5067065;28;9387;-80
2023/12/29 01:16:28;;;;;;;;;2.00;2.00;;;;;;;;5067136;28;9415;-80
2023/12/29 01:18:55;;;;;;;;;3.75;1.75;;;;;;;;5066692;28;9396;-80
2023/12/29 01:21:22;;;;;;;;;2.00;2.00;;;;;;;;5068330;28;9461;-80
2023/12/29 01:23:50;;;;;;;;;1.00;1.00;;;;;;;;5065601;28;9574;-79
2023/12/29 01:26:18;;;;;;;;;2.75;1.25;;;;;;;;5069161;28;9488;-82
2023/12/29 01:28:46;;;;;;;;;2.50;2.00;;;;;;;;5068721;28;9476;-80
2023/12/29 01:31:13;;;;;;;;;2.50;2.00;;;;;;;;5068262;28;9437;-80
2023/12/29 01:33:40;;;;;;;;;2.67;1.00;;;;;;;;5067384;28;9410;-80
2023/12/29 01:36:08;;;;;;;;;3.33;0.67;;;;;;;;5068486;28;9410;-80
2023/12/29 01:38:37;;;;;;;;;1.67;1.67;;;;;;;;5065579;28;9316;-82
2023/12/29 01:41:04;;;;;;;;;3.00;2.00;;;;;;;;5069732;28;9339;-81
2023/12/29 01:43:33;;;;;;;;;2.00;2.00;;;;;;;;5070105;28;9406;-79
2023/12/29 01:46:01;;;;;;;;;2.25;1.00;;;;;;;;5072931;28;9401;-80
2023/12/29 01:48:28;;;;;;;;;2.33;1.00;;;;;;;;5062926;28;9519;-80
2023/12/29 01:50:57;;;;;;;;;2.00;2.00;;;;;;;;5060523;28;9581;-80
2023/12/29 01:53:24;;;;;;;;;2.00;2.00;;;;;;;;5064247;28;9408;-81
2023/12/29 01:55:51;;;;;;;;;0.33;0.33;;;;;;;;5068337;28;9348;-80
2023/12/29 01:58:22;;;;;;;;;2.00;2.00;;;;;;;;5074674;28;9436;-83
2023/12/29 02:00:50;;;;;;;;;4.00;2.33;;;;;;;;5069430;28;9436;-80
2023/12/29 02:03:20;;;;;;;;;1.00;1.00;;;;;;;;5070543;28;9372;-82
2023/12/29 02:05:48;;;;;;;;;1.00;1.00;;;;;;;;5069760;28;9236;-79
2023/12/29 02:08:15;;;;;;;;;1.00;1.00;;;;;;;;5063537;28;9258;-80
2023/12/29 02:10:42;;;;;;;;;1.00;1.00;;;;;;;;5067573;28;9937;-79
2023/12/29 02:13:10;;;;;;;;;1.67;1.67;;;;;;;;5067927;28;9194;-79
2023/12/29 02:15:37;;;;;;;;;3.00;1.00;;;;;;;;5067653;28;9333;-80
2023/12/29 02:18:08;;;;;;;;;3.00;1.00;;;;;;;;5068464;28;9357;-80
2023/12/29 02:20:35;;;;;;;;;4.00;2.00;;;;;;;;5068431;28;9363;-80
2023/12/29 02:23:04;;;;;;;;;3.00;1.00;;;;;;;;5067677;28;9345;-81
2023/12/29 02:25:33;;;;;;;;;4.00;1.33;;;;;;;;5072001;28;9366;-78
2023/12/29 02:28:05;;;;;;;;;2.00;2.00;;;;;;;;5072616;28;9396;-80
2023/12/29 02:30:39;;;;;;;;;2.00;1.00;;;;;;;;5074060;28;9299;-82
2023/12/29 02:33:07;;;;;;;;;1.00;1.00;;;;;;;;5074051;28;9328;-81
2023/12/29 02:35:40;;;;;;;;;2.33;1.00;;;;;;;;5073450;28;9274;-82
2023/12/29 02:38:07;;;;;;;;;1.00;1.00;;;;;;;;5072124;28;9365;-81
2023/12/29 02:40:36;;;;;;;;;4.33;1.67;;;;;;;;5071657;28;9394;-80
2023/12/29 02:43:04;;;;;;;;;2.00;0.00;;;;;;;;5071545;28;9259;-82
2023/12/29 02:45:31;;;;;;;;;3.33;2.00;;;;;;;;5072108;28;9305;-81
2023/12/29 02:47:59;;;;;;;;;1.33;1.33;;;;;;;;5071368;28;9312;-81
2023/12/29 02:50:26;;;;;;;;;2.67;0.33;;;;;;;;5060192;28;9330;-81
2023/12/29 02:52:53;;;;;;;;;1.00;1.00;;;;;;;;5068507;28;9324;-82
2023/12/29 02:55:23;;;;;;;;;2.00;1.00;;;;;;;;5072197;28;9189;-81
2023/12/29 02:57:52;;;;;;;;;0.67;0.67;;;;;;;;5064353;28;9183;-82
2023/12/29 03:00:19;;;;;;;;;3.00;2.00;;;;;;;;5071199;28;9334;-82
2023/12/29 03:02:47;;;;;;;;;4.00;1.00;;;;;;;;5064512;28;9317;-81
2023/12/29 03:05:15;;;;;;;;;1.00;1.00;;;;;;;;5062821;28;9306;-81
2023/12/29 03:07:45;;;;;;;;;1.00;1.00;;;;;;;;5071162;28;9286;-82
2023/12/29 03:10:12;;;;;;;;;4.00;1.00;;;;;;;;5070330;28;9293;-82
2023/12/29 03:12:39;;;;;;;;;1.00;1.00;;;;;;;;5060840;28;9264;-81
2023/12/29 03:15:08;;;;;;;;;3.00;1.00;;;;;;;;5060307;28;9328;-81
2023/12/29 03:17:36;;;;;;;;;3.00;1.00;;;;;;;;5054942;28;9262;-81
2023/12/29 03:20:05;;;;;;;;;1.33;1.00;;;;;;;;5057400;28;9285;-81
2023/12/29 03:22:32;;;;;;;;;1.00;1.00;;;;;;;;5061256;28;9476;-81
2023/12/29 03:25:02;;;;;;;;;1.00;1.00;;;;;;;;5064797;28;9265;-80
2023/12/29 03:27:30;;;;;;;;;2.00;0.67;;;;;;;;5071541;28;9335;-79
2023/12/29 03:29:57;;;;;;;;;1.67;1.00;;;;;;;;5071943;28;9328;-79
2023/12/29 03:32:25;;;;;;;;;2.00;1.00;;;;;;;;5072113;28;9527;-79
2023/12/29 03:34:53;;;;;;;;;4.00;1.00;;;;;;;;5062955;28;9332;-79
2023/12/29 03:37:20;;;;;;;;;0.00;0.00;;;;;;;;5070113;28;9389;-81
2023/12/29 03:39:47;;;;;;;;;2.00;2.00;;;;;;;;5076500;28;9333;-80
2023/12/29 03:42:15;;;;;;;;;0.33;0.33;;;;;;;;5070714;28;9401;-82
2023/12/29 03:44:42;;;;;;;;;2.00;2.00;;;;;;;;5068155;28;9503;-80
2023/12/29 03:47:10;;;;;;;;;4.00;1.00;;;;;;;;5072613;28;10205;-80
2023/12/29 03:49:39;;;;;;;;;4.33;2.00;;;;;;;;5060409;28;9365;-83
2023/12/29 03:52:06;;;;;;;;;3.00;1.33;;;;;;;;5057138;28;9385;-83
2023/12/29 03:54:33;;;;;;;;;2.00;2.00;;;;;;;;5072168;28;9519;-81
2023/12/29 03:57:01;;;;;;;;;1.00;1.00;;;;;;;;5073684;28;9414;-82
2023/12/29 03:59:28;;;;;;;;;4.00;1.00;;;;;;;;5073374;28;10408;-83
2023/12/29 04:01:55;;;;;;;;;0.67;0.67;;;;;;;;5068803;28;9325;-82
2023/12/29 04:04:25;;;;;;;;;0.00;0.00;;;;;;;;5069634;28;9783;-80
2023/12/29 04:06:54;;;;;;;;;6.33;2.00;;;;;;;;5059357;28;9206;-81
2023/12/29 04:09:22;;;;;;;;;1.00;1.00;;;;;;;;5068545;28;9342;-81
2023/12/29 04:11:49;;;;;;;;;0.33;0.33;;;;;;;;5070233;28;9270;-81
2023/12/29 04:14:16;;;;;;;;;3.00;2.00;;;;;;;;5068849;28;9220;-80
2023/12/29 04:16:43;;;;;;;;;1.00;1.00;;;;;;;;5070730;28;10065;-81
2023/12/29 04:19:11;;;;;;;;;0.00;0.00;;;;;;;;5071337;28;9164;-80
2023/12/29 04:21:38;;;;;;;;;1.67;1.67;;;;;;;;5072748;28;9178;-80
2023/12/29 04:24:07;;;;;;;;;2.00;0.33;;;;;;;;5069778;28;9172;-81
2023/12/29 04:26:37;;;;;;;;;2.00;1.00;;;;;;;;5060791;28;9162;-80
2023/12/29 04:29:04;;;;;;;;;1.33;1.00;;;;;;;;5066605;28;9182;-80
2023/12/29 04:31:34;;;;;;;;;0.00;0.00;;;;;;;;5068954;28;9029;-79
2023/12/29 04:34:02;;;;;;;;;0.00;0.00;;;;;;;;5065577;28;9220;-82
2023/12/29 04:36:30;;;;;;;;;2.67;1.33;;;;;;;;5067744;28;9089;-80
2023/12/29 04:39:01;;;;;;;;;1.67;1.67;;;;;;;;5065343;28;9245;-81
2023/12/29 04:41:30;;;;;;;;;1.00;1.00;;;;;;;;5069011;28;9286;-82
2023/12/29 04:43:57;;;;;;;;;1.00;1.00;;;;;;;;5067386;28;9168;-80
2023/12/29 04:46:25;;;;;;;;;3.00;2.33;;;;;;;;5067280;28;9169;-83
2023/12/29 04:48:53;;;;;;;;;0.67;0.67;;;;;;;;5066588;28;9186;-83
2023/12/29 04:51:20;;;;;;;;;3.33;1.00;;;;;;;;5067173;28;9096;-83
2023/12/29 04:53:47;;;;;;;;;1.67;1.67;;;;;;;;5070108;28;9206;-79
2023/12/29 04:56:14;;;;;;;;;0.00;0.00;;;;;;;;5074098;28;9011;-77
2023/12/29 04:58:43;;;;;;;;;1.00;1.00;;;;;;;;5072589;28;8942;-79
2023/12/29 05:01:10;;;;;;;;;1.00;1.00;;;;;;;;5073936;28;8953;-77
2023/12/29 05:03:38;;;;;;;;;1.00;1.00;;;;;;;;5077115;28;9023;-83
2023/12/29 05:06:06;;;;;;;;;1.67;1.67;;;;;;;;5072163;28;9166;-80
2023/12/29 05:08:36;;;;;;;;;1.00;0.00;;;;;;;;5068247;28;9451;-79
2023/12/29 05:11:03;;;;;;;;;0.67;0.67;;;;;;;;5068597;28;9046;-80
2023/12/29 05:13:33;;;;;;;;;1.00;1.00;;;;;;;;5068485;28;9778;-80
2023/12/29 05:16:04;;;;;;;;;0.50;0.50;;;;;;;;5068456;28;9089;-80
2023/12/29 05:18:32;;;;;;;;;0.67;0.67;;;;;;;;5069997;28;8851;-81
2023/12/29 05:21:01;;;;;;;;;4.00;2.33;;;;;;;;5068146;28;9164;-81
2023/12/29 05:23:28;;;;;;;;;1.00;1.00;;;;;;;;5073038;28;9132;-80
2023/12/29 05:25:56;;;;;;;;;5.67;2.00;;;;;;;;5061102;28;8863;-81
2023/12/29 05:28:23;;;;;;;;;2.00;0.00;;;;;;;;5073503;28;9100;-81
2023/12/29 05:30:50;;;;;;;;;1.00;1.00;;;;;;;;5068683;28;9077;-82
2023/12/29 05:33:19;;;;;;;;;1.00;1.00;;;;;;;;5063448;28;9160;-81
2023/12/29 05:35:46;;;;;;;;;1.67;1.67;;;;;;;;5059603;28;8984;-79
2023/12/29 05:38:14;;;;;;;;;1.00;1.00;;;;;;;;5065155;28;8958;-81
2023/12/29 05:40:41;;;;;;;;;0.00;0.00;;;;;;;;5069959;28;9799;-81
2023/12/29 05:43:08;;;;;;;;;2.33;0.67;;;;;;;;5069290;28;8977;-80
2023/12/29 05:45:36;;;;;;;;;3.00;1.00;;;;;;;;5068493;28;9180;-80
2023/12/29 05:48:03;;;;;;;;;4.33;1.00;;;;;;;;5054644;28;9012;-81
2023/12/29 05:50:32;;;;;;;;;0.00;0.00;;;;;;;;5067565;28;9062;-81
2023/12/29 05:53:03;;;;;;;;;1.25;0.75;;;;;;;;5068269;28;9020;-84
2023/12/29 05:55:31;;;;;;;;;0.33;0.33;;;;;;;;5060807;28;8843;-80
2023/12/29 05:57:58;;;;;;;;;1.00;0.75;;;;;;;;5072279;28;9069;-81
2023/12/29 06:00:25;;;;;;;;;0.50;0.50;;;;;;;;5072590;28;8806;-81
2023/12/29 06:02:54;;;;;;;;;0.50;0.50;;;;;;;;5073333;28;8835;-84
2023/12/29 06:05:22;;;;;;;;;2.00;1.00;;;;;;;;5060721;28;8843;-82
2023/12/29 06:07:50;;;;;;;;;1.00;1.00;;;;;;;;5073718;28;9024;-81
2023/12/29 06:10:18;;;;;;;;;0.75;0.75;;;;;;;;5074695;28;8866;-77
2023/12/29 06:12:45;;;;;;;;;1.00;1.00;;;;;;;;5063014;28;8867;-79
2023/12/29 06:15:14;;;;;;;;;0.00;0.00;;;;;;;;5072542;28;9067;-73
2023/12/29 06:17:42;;;;;;;;;0.25;0.25;;;;;;;;5070656;28;9724;-78
2023/12/29 06:20:10;;;;;;;;;2.75;1.00;;;;;;;;5069305;28;8871;-76
2023/12/29 06:22:41;;;;;;;;;0.00;0.00;;;;;;;;5068744;28;8847;-78
2023/12/29 06:25:12;;;;;;;;;1.00;1.00;;;;;;;;5061574;28;8911;-75
2023/12/29 06:27:40;;;;;;;;;0.33;0.33;;;;;;;;5068997;28;8851;-79
2023/12/29 06:30:08;;;;;;;;;0.00;0.00;;;;;;;;5070797;28;8922;-74
2023/12/29 06:32:35;;;;;;;;;2.50;1.00;;;;;;;;5067458;28;8859;-77
2023/12/29 06:35:03;;;;;;;;;0.75;0.75;;;;;;;;5069148;28;8977;-77
2023/12/29 06:37:34;;;;;;;;;0.25;0.25;;;;;;;;5070315;28;8862;-78
2023/12/29 06:40:03;;;;;;;;;0.00;0.00;;;;;;;;5070770;28;8847;-75
2023/12/29 06:42:32;;;;;;;;;1.75;0.00;;;;;;;;5069867;28;8866;-77
2023/12/29 06:45:01;;;;;;;;;1.00;0.00;;;;;;;;5070547;28;8843;-76
2023/12/29 06:47:28;;;;;;;;;0.67;0.67;;;;;;;;5059671;28;8879;-77
2023/12/29 06:49:57;;;;;;;;;1.00;1.00;;;;;;;;5070691;28;9818;-76
2023/12/29 06:52:30;;;;;;;;;1.00;1.00;;;;;;;;5070863;28;8839;-73
2023/12/29 06:54:58;;;;;;;;;0.25;0.25;;;;;;;;5070244;28;8912;-77
2023/12/29 06:57:25;;;;;;;;;0.00;0.00;;;;;;;;5070977;28;8855;-79
2023/12/29 06:59:59;;;;;;;;;2.00;0.00;;;;;;;;5071089;28;8835;-76
2023/12/29 07:02:27;;;;;;;;;0.00;0.00;;;;;;;;5070533;28;8799;-75
2023/12/29 07:04:57;;;;;;;;;0.00;0.00;;;;;;;;5067986;28;8865;-77
2023/12/29 07:07:24;;;;;;;;;0.25;0.00;;;;;;;;5072716;28;8878;-79
2023/12/29 07:09:52;;;;;;;;;2.00;0.00;;;;;;;;5073878;28;8909;-77
2023/12/29 07:12:19;;;;;;;;;0.00;0.00;;;;;;;;5075584;28;8854;-80
2023/12/29 07:14:46;;;;;;;;;1.50;0.00;;;;;;;;5074562;28;9300;-75
2023/12/29 07:17:17;;;;;;;;;0.00;0.00;;;;;;;;5067638;28;8866;-73
2023/12/29 07:19:45;;;;;;;;;1.25;0.00;;;;;;;;5067262;28;8855;-75
2023/12/29 07:22:15;;;;;;;;;0.00;0.00;;;;;;;;5061403;28;8893;-76
2023/12/29 07:24:42;;;;;;;;;0.00;0.00;;;;;;;;5062926;28;8939;-80
2023/12/29 07:27:09;;;;;;;;;0.25;0.25;;;;;;;;5062726;28;8868;-74
2023/12/29 07:29:36;;;;;;;;;1.00;0.00;;;;;;;;5076223;28;8908;-73
2023/12/29 07:32:05;;;;;;;;;2.00;0.25;;;;;;;;5064536;28;8820;-75
2023/12/29 07:34:34;;;;;;;;;1.25;0.75;;;;;;;;5070880;28;8919;-76
2023/12/29 07:37:02;;;;;;;;;0.25;0.25;;;;;;;;5072513;28;8927;-75
2023/12/29 07:39:33;;;;;;;;;1.50;0.75;;;;;;;;5059005;28;8934;-74
2023/12/29 07:42:03;;;;;;;;;0.00;0.00;;;;;;;;5066385;28;8855;-75
2023/12/29 07:44:33;;;;;;;;;0.75;0.00;;;;;;;;5052689;28;8841;-75
2023/12/29 07:47:01;;;;;;;;;0.00;0.00;;;;;;;;5056873;28;8913;-75
2023/12/29 07:49:28;;;;;;;;;1.00;1.00;;;;;;;;5061292;28;8874;-75
2023/12/29 07:51:59;;;;;;;;;0.00;0.00;;;;;;;;5069934;28;8838;-74
2023/12/29 07:54:26;;;;;;;;;1.00;1.00;;;;;;;;5071784;28;8854;-76
2023/12/29 07:56:54;;;;;;;;;2.00;0.00;;;;;;;;5072796;28;8882;-73
2023/12/29 07:59:21;;;;;;;;;0.75;0.75;;;;;;;;5072234;28;8851;-75
2023/12/29 08:01:48;;;;;;;;;0.25;0.25;;;;;;;;5059267;28;8811;-75
2023/12/29 08:04:15;;;;;;;;;0.25;0.25;;;;;;;;5061801;28;9016;-74
2023/12/29 08:06:42;;;;;;;;;0.50;0.50;;;;;;;;5067154;28;9637;-76
2023/12/29 08:09:11;;;;;;;;;1.00;1.00;;;;;;;;5069093;28;8990;-76
2023/12/29 08:11:38;;;;;;;;;0.00;0.00;;;;;;;;5069468;28;8847;-76
2023/12/29 08:14:07;;;;;;;;;3.00;0.75;;;;;;;;5067666;28;8838;-76
2023/12/29 08:16:40;;;;;;;;;1.25;1.00;;;;;;;;5056694;28;8850;-74
2023/12/29 08:19:07;;;;;;;;;1.00;1.00;;;;;;;;5060881;28;8845;-77
2023/12/29 08:21:34;;;;;;;;;0.50;0.25;;;;;;;;5070545;28;8859;-77
2023/12/29 08:24:04;;;;;;;;;1.00;0.00;;;;;;;;5070707;28;8948;-77
2023/12/29 08:26:33;;;;;;;;;5.00;0.00;;;;;;;;5068160;28;8850;-77
2023/12/29 08:29:03;;;;;;;;;0.00;0.00;;;;;;;;5068369;28;8973;-75
2023/12/29 08:31:30;;;;;;;;;0.33;0.00;;;;;;;;5068614;28;8819;-77
2023/12/29 08:33:57;;;;;;;;;0.00;0.00;;;;;;;;5068911;28;9714;-77
2023/12/29 08:36:25;;;;;;;;;0.00;0.00;;;;;;;;5068422;28;9026;-76
2023/12/29 08:38:53;;;;;;;;;3.50;0.50;;;;;;;;5067841;28;8984;-76
2023/12/29 08:41:20;;;;;;;;;0.00;0.00;;;;;;;;5068244;28;8891;-74
2023/12/29 08:43:49;;;;;;;;;0.00;0.00;;;;;;;;5068016;28;8855;-76
2023/12/29 08:46:22;;;;;;;;;1.00;0.00;;;;;;;;5068550;28;8878;-76
2023/12/29 08:48:49;;;;;;;;;0.00;0.00;;;;;;;;5068251;28;8859;-75
2023/12/29 08:51:17;;;;;;;;;0.00;0.00;;;;;;;;5068502;28;8897;-75
2023/12/29 08:53:44;;;;;;;;;0.00;0.00;;;;;;;;5067691;28;8989;-76
2023/12/29 08:56:13;;;;;;;;;0.00;0.00;;;;;;;;5069900;28;8867;-75
2023/12/29 08:58:41;;;;;;;;;0.25;0.00;;;;;;;;5069693;28;9660;-76
2023/12/29 09:01:10;;;;;;;;;1.50;0.00;;;;;;;;5070180;28;8783;-75
2023/12/29 09:03:37;;;;;;;;;0.75;0.00;;;;;;;;5062809;28;8899;-77
2023/12/29 09:06:05;;;;;;;;;0.00;0.00;;;;;;;;5059275;28;8976;-75
2023/12/29 09:08:32;;;;;;;;;0.00;0.00;;;;;;;;5062504;28;8868;-74
2023/12/29 09:10:59;;;;;;;;;0.50;0.50;;;;;;;;5060794;28;8945;-74
2023/12/29 09:13:27;;;;;;;;;0.00;0.00;;;;;;;;5060569;28;8850;-75
2023/12/29 09:15:55;;;;;;;;;1.00;1.00;;;;;;;;5067850;28;8881;-74
2023/12/29 09:18:23;;;;;;;;;1.00;0.00;;;;;;;;5068030;28;8946;-74
2023/12/29 09:20:51;;;;;;;;;1.75;1.00;;;;;;;;5065056;28;9700;-73
2023/12/29 09:23:18;;;;;;;;;0.00;0.00;;;;;;;;5068373;28;8881;-74
2023/12/29 09:25:45;;;;;;;;;1.00;1.00;;;;;;;;5055953;28;8835;-74
2023/12/29 09:28:13;;;;;;;;;0.00;0.00;;;;;;;;5066406;28;8889;-75
2023/12/29 09:30:40;;;;;;;;;0.00;0.00;;;;;;;;5067097;28;8842;-76
2023/12/29 09:33:10;;;;;;;;;0.00;0.00;;;;;;;;5067965;28;8962;-74
2023/12/29 09:35:39;;;;;;;;;2.00;1.00;;;;;;;;5067538;28;8857;-74
2023/12/29 09:38:06;;;;;;;;;0.00;0.00;;;;;;;;5067536;28;8872;-76
2023/12/29 09:40:33;;;;;;;;;0.75;0.00;;;;;;;;5067166;28;8875;-73
2023/12/29 09:43:02;;;;;;;;;1.25;0.00;;;;;;;;5069085;28;8917;-74
2023/12/29 09:45:33;;;;;;;;;2.00;0.00;;;;;;;;5070559;28;8847;-74
2023/12/29 09:48:03;;;;;;;;;0.75;0.75;;;;;;;;5070739;28;8862;-73
2023/12/29 09:50:35;;;;;;;;;0.25;0.00;;;;;;;;5068450;28;8937;-78
2023/12/29 09:53:04;;;;;;;;;0.75;0.75;;;;;;;;5067166;28;8985;-77
2023/12/29 09:55:32;;;;;;;;;0.25;0.00;;;;;;;;5067714;28;8869;-73
2023/12/29 09:58:02;;;;;;;;;0.00;0.00;;;;;;;;5071515;28;8854;-76
2023/12/29 10:00:32;;;;;;;;;1.00;1.00;;;;;;;;5068183;28;8771;-78
2023/12/29 10:03:02;;;;;;;;;1.00;0.50;;;;;;;;5067469;28;8853;-74
2023/12/29 10:05:29;;;;;;;;;1.00;0.25;;;;;;;;5066955;28;8859;-76
2023/12/29 10:07:57;;;;;;;;;0.75;0.00;;;;;;;;5067531;28;8863;-74
2023/12/29 10:10:29;;;;;;;;;1.00;1.00;;;;;;;;5067478;28;8866;-75
2023/12/29 10:12:56;;;;;;;;;0.00;0.00;;;;;;;;5066499;28;9605;-76
2023/12/29 10:15:34;;;;;;;;;0.00;0.00;;;;;;;;5067751;28;8834;-75
2023/12/29 10:18:11;;;;;;;;;0.75;0.75;;;;;;;;5067153;28;8847;-77
2023/12/29 10:20:45;;;;;;;;;0.00;0.00;;;;;;;;5065917;28;8881;-76
2023/12/29 10:23:14;;;;;;;;;2.25;1.00;;;;;;;;5067439;28;8951;-78
2023/12/29 10:25:42;;;;;;;;;1.25;0.75;;;;;;;;5066803;28;8862;-75
2023/12/29 10:28:11;;;;;;;;;1.00;1.00;;;;;;;;5067607;28;8878;-78
2023/12/29 10:30:38;;;;;;;;;0.00;0.00;;;;;;;;5065102;28;8801;-77
2023/12/29 10:33:06;;;;;;;;;1.00;1.00;;;;;;;;5067442;28;8989;-78
2023/12/29 10:35:34;;;;;;;;;0.50;0.50;;;;;;;;5066275;28;8979;-77
2023/12/29 10:38:10;;;;;;;;;0.00;0.00;;;;;;;;5067424;28;8883;-75
2023/12/29 10:40:38;;;;;;;;;0.00;0.00;;;;;;;;5070266;28;8858;-78
2023/12/29 10:43:08;;;;;;;;;0.00;0.00;;;;;;;;5072576;28;8896;-77
2023/12/29 10:45:36;;;;;;;;;0.00;0.00;;;;;;;;5072798;28;8851;-74
2023/12/29 10:48:03;;;;;;;;;1.00;1.00;;;;;;;;5073168;28;9657;-76
2023/12/29 10:50:38;;;;;;;;;1.00;1.00;;;;;;;;5064223;28;8853;-78
2023/12/29 10:53:16;;;;;;;;;0.50;0.00;;;;;;;;5060207;28;8857;-75
2023/12/29 10:55:44;;;;;;;;;1.00;1.00;;;;;;;;5062957;28;8889;-78
2023/12/29 10:58:12;;;;;;;;;2.00;0.75;;;;;;;;5062755;28;8862;-75
2023/12/29 11:00:39;;;;;;;;;1.50;1.50;;;;;;;;5059226;28;8941;-76
2023/12/29 11:03:11;;;;;;;;;0.00;0.00;;;;;;;;5064496;28;8861;-77
2023/12/29 11:05:38;;;;;;;;;1.75;0.50;;;;;;;;5061105;28;9644;-77
2023/12/29 11:08:17;;;;;;;;;2.00;0.00;;;;;;;;5062247;28;8859;-75
2023/12/29 11:10:44;;;;;;;;;2.00;0.00;;;;;;;;5062856;28;8847;-76
2023/12/29 11:13:14;;;;;;;;;1.00;1.00;;;;;;;;5070218;28;8875;-78
2023/12/29 11:15:45;;;;;;;;;0.00;0.00;;;;;;;;5070260;28;8882;-75
2023/12/29 11:18:15;;;;;;;;;1.75;0.00;;;;;;;;5069555;28;8870;-75
2023/12/29 11:20:43;;;;;;;;;1.00;1.00;;;;;;;;5070099;28;8985;-74
2023/12/29 11:23:13;;;;;;;;;0.00;0.00;;;;;;;;5063332;28;8847;-74
2023/12/29 11:25:40;;;;;;;;;1.00;1.00;;;;;;;;5052243;28;8876;-75
2023/12/29 11:28:11;;;;;;;;;1.00;1.00;;;;;;;;5069854;28;8873;-75
2023/12/29 11:30:40;;;;;;;;;0.00;0.00;;;;;;;;5070227;28;8775;-75
2023/12/29 11:33:12;;;;;;;;;1.00;1.00;;;;;;;;5072694;28;8965;-76
2023/12/29 11:35:44;;;;;;;;;2.00;0.25;;;;;;;;5072837;28;8873;-77
2023/12/29 11:38:26;;;;;;;;;1.50;0.00;;;;;;;;5070995;28;8839;-76
2023/12/29 11:41:04;;;;;;;;;0.00;0.00;;;;;;;;5069695;28;8977;-78
2023/12/29 11:43:34;;;;;;;;;3.75;0.00;;;;;;;;5067379;28;8842;-74
2023/12/29 11:46:05;;;;;;;;;0.00;0.00;;;;;;;;5067913;28;8839;-73
2023/12/29 11:48:57;;;;;;;;;0.25;0.25;;;;;;;;5068194;28;8917;-73
2023/12/29 11:51:33;;;;;;;;;1.00;1.00;;;;;;;;5064602;28;8878;-74
2023/12/29 11:54:04;;;;;;;;;0.00;0.00;;;;;;;;5059076;28;8846;-75
2023/12/29 11:56:40;;;;;;;;;0.00;0.00;;;;;;;;5067215;28;8934;-75
2023/12/29 11:59:27;;;;;;;;;0.00;0.00;;;;;;;;5069576;28;8846;-73
2023/12/29 12:01:56;;;;;;;;;0.00;0.00;;;;;;;;5068370;28;8814;-74
2023/12/29 12:04:39;;;;;;;;;0.00;0.00;;;;;;;;5068888;28;8880;-74
2023/12/29 12:07:07;;;;;;;;;2.67;0.00;;;;;;;;5069233;28;8851;-75
2023/12/29 12:09:34;;;;;;;;;1.00;1.00;;;;;;;;5066985;28;8865;-74
2023/12/29 12:12:03;;;;;;;;;0.00;0.00;;;;;;;;5069380;28;8970;-75
2023/12/29 12:14:47;;;;;;;;;0.50;0.00;;;;;;;;5069209;28;8859;-75
2023/12/29 12:17:30;;;;;;;;;1.50;1.00;;;;;;;;5068258;28;8881;-75
2023/12/29 12:20:03;;;;;;;;;0.00;0.00;;;;;;;;5059246;28;8850;-77
2023/12/29 12:22:32;;;;;;;;;0.00;0.00;;;;;;;;5068053;28;8843;-76
2023/12/29 12:25:02;;;;;;;;;1.75;1.00;;;;;;;;5060941;28;8860;-74
2023/12/29 12:27:30;;;;;;;;;0.00;0.00;;;;;;;;5066774;28;8933;-76
2023/12/29 12:29:59;;;;;;;;;2.00;1.00;;;;;;;;5070770;28;8870;-73
2023/12/29 12:32:29;;;;;;;;;0.00;0.00;;;;;;;;5072011;28;8892;-74
2023/12/29 12:34:57;;;;;;;;;0.50;0.50;;;;;;;;5073107;28;8985;-74
2023/12/29 12:37:25;;;;;;;;;0.00;0.00;;;;;;;;5069933;28;8847;-78
2023/12/29 12:39:53;;;;;;;;;0.75;0.00;;;;;;;;5059180;28;8993;-77
2023/12/29 12:42:21;;;;;;;;;0.50;0.00;;;;;;;;5060670;28;8854;-75
2023/12/29 12:44:53;;;;;;;;;0.50;0.00;;;;;;;;5067524;28;8872;-75
2023/12/29 12:47:30;;;;;;;;;0.00;0.00;;;;;;;;5060287;28;8839;-74
2023/12/29 12:49:57;;;;;;;;;1.00;1.00;;;;;;;;5067539;28;8850;-75
2023/12/29 12:52:24;;;;;;;;;0.00;0.00;;;;;;;;5058585;28;8989;-75
2023/12/29 12:54:55;;;;;;;;;2.00;1.00;;;;;;;;5067904;28;8909;-74
2023/12/29 12:57:23;;;;;;;;;0.00;0.00;;;;;;;;5069622;28;8842;-77
2023/12/29 12:59:51;;;;;;;;;0.75;0.75;;;;;;;;5069357;28;9613;-74
2023/12/29 13:02:19;;;;;;;;;0.25;0.25;;;;;;;;5067549;28;8813;-76
2023/12/29 13:04:48;;;;;;;;;0.00;0.00;;;;;;;;5063259;28;8841;-74
2023/12/29 13:07:17;;;;;;;;;0.00;0.00;;;;;;;;5068108;28;8850;-74
2023/12/29 13:09:44;;;;;;;;;0.00;0.00;;;;;;;;5067450;28;8835;-74
2023/12/29 13:12:12;;;;;;;;;0.00;0.00;;;;;;;;5066739;28;8973;-77
2023/12/29 13:14:39;;;;;;;;;1.25;0.00;;;;;;;;5067915;28;8850;-75
2023/12/29 13:17:08;;;;;;;;;1.50;0.25;;;;;;;;5069647;28;8838;-75
2023/12/29 13:19:35;;;;;;;;;0.00;0.00;;;;;;;;5070862;28;8862;-75
2023/12/29 13:22:04;;;;;;;;;0.00;0.00;;;;;;;;5071981;28;8851;-75
2023/12/29 13:24:36;;;;;;;;;0.00;0.00;;;;;;;;5063720;28;8865;-76
2023/12/29 13:27:06;;;;;;;;;0.75;0.75;;;;;;;;5062189;28;8853;-77
2023/12/29 13:29:34;;;;;;;;;2.00;1.00;;;;;;;;5067820;28;9703;-76
2023/12/29 13:32:04;;;;;;;;;0.00;0.00;;;;;;;;5066036;28;8803;-74
2023/12/29 13:34:34;;;;;;;;;0.00;0.00;;;;;;;;5056288;28;8855;-77
2023/12/29 13:37:10;;;;;;;;;1.50;0.00;;;;;;;;5067590;28;8858;-75
2023/12/29 13:39:40;;;;;;;;;1.00;1.00;;;;;;;;5067486;28;8874;-75
2023/12/29 13:42:10;;;;;;;;;1.00;0.50;;;;;;;;5067522;28;8862;-76
2023/12/29 13:44:38;;;;;;;;;1.75;1.00;;;;;;;;5066172;28;8990;-75
2023/12/29 13:47:06;;;;;;;;;0.50;0.50;;;;;;;;5064596;28;8934;-78
2023/12/29 13:49:36;;;;;;;;;3.00;1.50;;;;;;;;5065439;28;9245;-76
2023/12/29 13:52:05;;;;;;;;;0.00;0.00;;;;;;;;5067809;28;8904;-76
2023/12/29 13:54:34;;;;;;;;;1.00;1.00;;;;;;;;5068348;28;8877;-76
2023/12/29 13:57:05;;;;;;;;;2.00;0.25;;;;;;;;5066179;28;8851;-75
2023/12/29 13:59:33;;;;;;;;;0.50;0.50;;;;;;;;5067649;28;8854;-75
2023/12/29 14:02:04;;;;;;;;;0.75;0.75;;;;;;;;5067517;28;8914;-76
2023/12/29 14:04:35;;;;;;;;;2.00;1.00;;;;;;;;5066709;28;8866;-76
2023/12/29 14:07:04;;;;;;;;;1.00;1.00;;;;;;;;5064419;28;8957;-75
2023/12/29 14:09:32;;;;;;;;;1.00;1.00;;;;;;;;5060688;28;8939;-75
2023/12/29 14:12:01;;;;;;;;;1.00;1.00;;;;;;;;5057735;28;8880;-76
2023/12/29 14:14:28;;;;;;;;;0.00;0.00;;;;;;;;5068302;28;8831;-76
2023/12/29 14:16:55;;;;;;;;;1.00;0.00;;;;;;;;5068914;28;8969;-78
2023/12/29 14:19:23;;;;;;;;;2.75;1.25;;;;;;;;5071662;28;8851;-79
2023/12/29 14:21:52;;;;;;;;;0.25;0.25;;;;;;;;5073053;28;8863;-78
2023/12/29 14:24:21;;;;;;;;;1.00;1.00;;;;;;;;5070587;28;8864;-75
2023/12/29 14:26:57;;;;;;;;;0.00;0.00;;;;;;;;5064064;28;8954;-78
2023/12/29 14:29:24;;;;;;;;;1.00;0.00;;;;;;;;5058932;28;8857;-79
2023/12/29 14:31:52;;;;;;;;;0.00;0.00;;;;;;;;5066034;28;8815;-79
2023/12/29 14:34:20;;;;;;;;;1.00;1.00;;;;;;;;5073397;28;8859;-80
2023/12/29 14:36:47;;;;;;;;;0.00;0.00;;;;;;;;5065997;28;9008;-75
2023/12/29 14:39:16;;;;;;;;;2.00;0.00;;;;;;;;5073042;28;8932;-78
2023/12/29 14:41:45;;;;;;;;;2.25;1.00;;;;;;;;5067642;28;8880;-80
2023/12/29 14:44:14;;;;;;;;;0.00;0.00;;;;;;;;5071756;28;9461;-76
2023/12/29 14:46:43;;;;;;;;;0.50;0.00;;;;;;;;5073086;28;8924;-76
2023/12/29 14:49:11;;;;;;;;;0.00;0.00;;;;;;;;5064417;28;8842;-75
2023/12/29 14:51:39;;;;;;;;;0.00;0.00;;;;;;;;5070320;28;8846;-76
2023/12/29 14:54:06;;;;;;;;;0.00;0.00;;;;;;;;5067568;28;8857;-74
2023/12/29 14:56:34;;;;;;;;;0.00;0.00;;;;;;;;5066014;28;9643;-74
2023/12/29 14:59:02;;;;;;;;;0.00;0.00;;;;;;;;5073247;28;8851;-75
2023/12/29 15:01:32;;;;;;;;;0.00;0.00;;;;;;;;5072270;28;8811;-74
2023/12/29 15:03:59;;;;;;;;;0.00;0.00;;;;;;;;5070772;28;8940;-74
2023/12/29 15:06:26;;;;;;;;;2.00;0.50;;;;;;;;5065594;28;8866;-74